Time;durP1;ratioP1;P1;durP2;ratioP2;P2;SDS_P1;SDS_P2;PMS_P1;PMS_P2;Temp;Humidity;BMP_temperature;BMP_pressure;BME280_temperature;BME280_humidity;BME280_pressure;Samples;Min_cycle;Max_cycle;Signal;HPM_P1;HPM_P2
2022/05/24 00:02:05;;;;;;;30.08;21.27;;;20.00;84.80;;;;;;5015186;28;20079;-16
2022/05/24 00:04:31;;;;;;;32.58;20.60;;;19.90;85.40;;;;;;5014883;28;20035;-14
2022/05/24 00:06:58;;;;;;;24.35;18.02;;;19.90;85.10;;;;;;5015701;28;20022;-14
2022/05/24 00:09:25;;;;;;;25.17;19.23;;;20.00;84.70;;;;;;5014883;28;20091;-15
2022/05/24 00:11:52;;;;;;;28.80;20.08;;;20.00;84.70;;;;;;5015281;28;20037;-14
2022/05/24 00:15:19;;;;;;;27.67;20.60;;;19.90;84.70;;;;;;5015057;28;20052;-13
2022/05/24 00:17:06;;;;;;;25.02;19.60;;;19.90;84.80;;;;;;5014960;28;20108;-14
2022/05/24 00:19:34;;;;;;;29.83;20.17;;;19.90;84.50;;;;;;4997857;28;20125;-16
2022/05/24 00:22:01;;;;;;;26.83;20.48;;;19.90;85.00;;;;;;4997266;28;20362;-14
2022/05/24 00:24:27;;;;;;;28.33;20.75;;;19.90;84.80;;;;;;4996926;28;20095;-16
2022/05/24 00:26:53;;;;;;;28.98;20.85;;;19.90;84.80;;;;;;5015000;28;20030;-16
2022/05/24 00:29:19;;;;;;;27.67;17.85;;;19.90;84.70;;;;;;5014882;28;20022;-15
2022/05/24 00:31:47;;;;;;;28.20;20.48;;;19.90;84.30;;;;;;4997116;28;20363;-13
2022/05/24 00:34:13;;;;;;;27.15;19.00;;;19.90;84.50;;;;;;5014880;28;20037;-15
2022/05/24 00:36:39;;;;;;;25.90;19.25;;;19.80;84.60;;;;;;5014852;28;20037;-14
2022/05/24 00:39:05;;;;;;;27.25;19.88;;;19.80;84.50;;;;;;5014515;28;20034;-16
2022/05/24 00:41:38;;;;;;;26.55;17.30;;;19.80;84.80;;;;;;5014733;28;20026;-14
2022/05/24 00:44:10;;;;;;;24.33;17.60;;;19.70;84.40;;;;;;5013784;28;20034;-13
2022/05/24 00:46:45;;;;;;;24.80;18.30;;;19.70;84.10;;;;;;5014268;28;20037;-15
2022/05/24 00:49:24;;;;;;;23.45;18.63;;;19.70;83.60;;;;;;5014883;28;20042;-15
2022/05/24 00:51:58;;;;;;;26.00;17.95;;;19.70;84.00;;;;;;5014246;28;20022;-14
2022/05/24 00:54:24;;;;;;;27.48;21.30;;;19.70;84.20;;;;;;5014090;28;20022;-15
2022/05/24 00:57:18;;;;;;;26.35;18.98;;;19.70;85.00;;;;;;5015124;28;20128;-13
2022/05/24 01:00:15;;;;;;;29.45;20.92;;;19.70;84.90;;;;;;5014505;28;20034;-13
2022/05/24 01:02:43;;;;;;;31.05;21.20;;;19.60;85.20;;;;;;4935132;29;20183;-13
2022/05/24 01:05:13;;;;;;;29.30;19.52;;;19.60;85.00;;;;;;4934624;29;20115;-14
2022/05/24 01:07:39;;;;;;;25.83;18.85;;;19.60;84.80;;;;;;4934368;29;20048;-14
2022/05/24 01:10:09;;;;;;;28.20;21.27;;;19.60;84.50;;;;;;4934392;29;20428;-14
2022/05/24 01:13:04;;;;;;;28.48;21.05;;;19.60;85.00;;;;;;4934313;29;20123;-14
2022/05/24 01:15:30;;;;;;;26.95;19.73;;;19.60;85.10;;;;;;4910462;29;20059;-14
2022/05/24 01:17:59;;;;;;;24.52;17.25;;;19.60;84.90;;;;;;4918417;29;20059;-16
2022/05/24 01:20:26;;;;;;;25.67;19.00;;;19.60;84.60;;;;;;4934278;29;20040;-14
2022/05/24 01:23:04;;;;;;;28.33;21.17;;;19.50;84.70;;;;;;4934285;29;20103;-14
2022/05/24 01:25:38;;;;;;;29.23;20.05;;;19.50;85.10;;;;;;4934330;29;20103;-16
2022/05/24 01:28:11;;;;;;;28.70;18.40;;;19.50;84.90;;;;;;4934322;29;20075;-14
2022/05/24 01:30:37;;;;;;;23.67;17.80;;;19.50;84.80;;;;;;4934060;29;20028;-14
2022/05/24 01:38:33;;;;;;;26.45;18.58;;;19.40;84.50;;;;;;4952003;28;20048;-16
2022/05/24 01:41:00;;;;;;;26.23;17.85;;;19.40;84.50;;;;;;4994177;28;20085;-16
2022/05/24 01:43:28;;;;;;;24.10;18.15;;;19.40;84.60;;;;;;4992614;28;20034;-15
2022/05/24 01:46:03;;;;;;;27.65;19.35;;;19.40;84.70;;;;;;4994233;28;20084;-14
2022/05/24 01:48:36;;;;;;;26.33;17.45;;;19.40;84.80;;;;;;4993870;28;20041;-13
2022/05/24 01:51:04;;;;;;;22.23;17.30;;;19.40;84.80;;;;;;4994465;28;20029;-16
2022/05/24 01:53:41;;;;;;;27.80;19.63;;;19.30;84.60;;;;;;4993657;28;20038;-13
2022/05/24 01:56:11;;;;;;;25.67;16.92;;;19.30;85.00;;;;;;4993435;28;20053;-14
2022/05/24 01:58:39;;;;;;;23.90;17.08;;;19.30;84.60;;;;;;4993549;28;20022;-14
2022/05/24 02:01:17;;;;;;;27.60;19.05;;;19.30;84.70;;;;;;4994007;28;20185;-14
2022/05/24 02:03:43;;;;;;;28.40;18.70;;;19.20;85.10;;;;;;4994303;28;20023;-13
2022/05/24 02:06:20;;;;;;;28.42;19.50;;;19.20;85.20;;;;;;4993953;28;20092;-16
2022/05/24 02:08:46;;;;;;;27.70;19.05;;;19.20;85.40;;;;;;4992206;28;20070;-14
2022/05/24 02:11:14;;;;;;;29.23;17.80;;;19.20;85.50;;;;;;4993957;28;20057;-16
2022/05/24 02:13:44;;;;;;;26.25;18.08;;;19.10;85.30;;;;;;4993667;28;20363;-16
2022/05/24 02:16:14;;;;;;;29.10;17.77;;;19.10;85.30;;;;;;4993547;28;20026;-14
2022/05/24 02:18:44;;;;;;;23.08;17.10;;;19.10;85.30;;;;;;4993479;28;20037;-14
2022/05/24 02:21:10;;;;;;;27.05;19.25;;;19.10;85.10;;;;;;4993820;28;20100;-14
2022/05/24 02:23:45;;;;;;;27.27;17.92;;;19.10;85.20;;;;;;4993410;28;20484;-14
2022/05/24 02:26:13;;;;;;;25.08;18.08;;;19.00;85.20;;;;;;4993636;28;20019;-14
2022/05/24 02:28:40;;;;;;;23.20;15.73;;;19.00;85.20;;;;;;4994589;28;20544;-16
2022/05/24 02:31:11;;;;;;;23.98;15.35;;;19.00;85.10;;;;;;4993386;28;20068;-14
2022/05/24 02:33:37;;;;;;;27.85;18.17;;;19.00;84.90;;;;;;4993723;28;20367;-16
2022/05/24 02:36:05;;;;;;;24.23;17.40;;;19.00;84.90;;;;;;4993484;28;20030;-15
2022/05/24 02:38:32;;;;;;;19.33;14.45;;;18.90;84.70;;;;;;4993311;28;20483;-16
2022/05/24 02:43:44;;;;;;;27.85;17.52;;;18.90;84.60;;;;;;4993684;28;20150;-14
2022/05/24 02:46:10;;;;;;;23.40;17.35;;;18.90;84.60;;;;;;4993336;28;20536;-16
2022/05/24 02:48:37;;;;;;;25.05;17.88;;;18.80;84.70;;;;;;4993180;28;20043;-14
2022/05/24 02:51:12;;;;;;;24.95;17.50;;;18.80;84.70;;;;;;4993732;28;20077;-16
2022/05/24 02:53:40;;;;;;;27.20;17.90;;;18.80;84.50;;;;;;4993505;28;20077;-14
2022/05/24 02:56:07;;;;;;;24.85;17.65;;;18.70;84.60;;;;;;4993433;28;20501;-13
2022/05/24 02:58:34;;;;;;;25.52;16.60;;;18.70;84.70;;;;;;4993028;28;20030;-14
2022/05/24 03:01:00;;;;;;;29.65;19.13;;;18.60;84.60;;;;;;4993111;28;20065;-15
2022/05/24 03:03:26;;;;;;;20.08;14.50;;;18.60;85.00;;;;;;4993250;28;20030;-14
2022/05/24 03:05:52;;;;;;;26.00;16.65;;;18.60;84.50;;;;;;4993969;28;20018;-14
2022/05/24 03:11:03;;;;;;;28.63;19.70;;;18.50;85.00;;;;;;4996666;28;20065;-14
2022/05/24 03:16:16;;;;;;;26.05;19.90;;;18.60;85.00;;;;;;4996948;28;20446;-14
2022/05/24 03:18:43;;;;;;;26.13;17.48;;;18.50;84.90;;;;;;4997084;28;20077;-16
2022/05/24 03:21:09;;;;;;;22.13;17.17;;;18.60;84.80;;;;;;4995283;28;20042;-14
2022/05/24 03:23:36;;;;;;;21.95;16.38;;;18.60;84.60;;;;;;4996575;28;20050;-14
2022/05/24 03:26:03;;;;;;;25.05;16.20;;;18.60;84.40;;;;;;4996518;28;20069;-16
2022/05/24 03:28:29;;;;;;;25.13;16.73;;;18.60;84.30;;;;;;4996343;28;20034;-16
2022/05/24 03:30:55;;;;;;;20.73;15.73;;;18.60;84.40;;;;;;4996257;28;20367;-16
2022/05/24 03:33:22;;;;;;;26.10;18.25;;;18.60;84.60;;;;;;4994974;28;20504;-16
2022/05/24 03:35:48;;;;;;;25.17;17.60;;;18.50;84.80;;;;;;4996173;28;20058;-14
2022/05/24 03:38:14;;;;;;;20.33;14.90;;;18.50;84.50;;;;;;4995738;28;20023;-16
2022/05/24 03:40:40;;;;;;;28.15;18.30;;;18.50;84.50;;;;;;4996561;28;20034;-14
2022/05/24 03:43:14;;;;;;;24.05;17.40;;;18.50;84.80;;;;;;4996221;28;20030;-14
2022/05/24 03:45:41;;;;;;;24.52;16.27;;;18.50;84.40;;;;;;4995978;28;20027;-15
2022/05/24 03:48:08;;;;;;;20.92;15.63;;;18.50;84.60;;;;;;4995938;28;20018;-14
2022/05/24 03:50:34;;;;;;;22.65;16.52;;;18.50;84.70;;;;;;4994593;28;20030;-15
2022/05/24 03:53:00;;;;;;;20.83;14.73;;;18.50;84.60;;;;;;4995872;28;20072;-16
2022/05/24 03:55:27;;;;;;;21.40;15.70;;;18.50;84.30;;;;;;4995809;28;20087;-14
2022/05/24 03:58:02;;;;;;;21.77;15.32;;;18.50;84.10;;;;;;4995640;28;20138;-14
2022/05/24 04:00:35;;;;;;;20.30;14.98;;;18.50;84.20;;;;;;4995665;28;20026;-16
2022/05/24 04:03:02;;;;;;;20.20;14.45;;;18.60;84.10;;;;;;4996090;28;20025;-14
2022/05/24 04:05:29;;;;;;;19.13;15.48;;;18.60;84.00;;;;;;4995614;28;20058;-16
2022/05/24 04:07:55;;;;;;;21.10;15.40;;;18.60;83.90;;;;;;5002731;28;20046;-16
2022/05/24 04:10:22;;;;;;;23.13;14.85;;;18.60;83.80;;;;;;5015000;28;20029;-14
2022/05/24 04:12:48;;;;;;;21.13;13.68;;;18.60;83.90;;;;;;4998312;28;20373;-14
2022/05/24 04:15:15;;;;;;;26.10;16.33;;;18.70;83.80;;;;;;4997475;28;20037;-14
2022/05/24 04:17:41;;;;;;;21.15;15.55;;;18.70;83.80;;;;;;5014417;28;20030;-16
2022/05/24 04:20:09;;;;;;;19.75;14.20;;;18.80;83.40;;;;;;5014979;28;20141;-14
2022/05/24 04:22:36;;;;;;;20.25;14.48;;;18.90;83.30;;;;;;4997140;28;20037;-14
2022/05/24 04:25:03;;;;;;;19.13;12.68;;;18.90;83.00;;;;;;5014947;28;20036;-15
2022/05/24 04:27:29;;;;;;;23.35;15.95;;;19.00;82.60;;;;;;5015007;28;20034;-14
2022/05/24 04:29:55;;;;;;;17.23;12.70;;;19.20;82.70;;;;;;4997392;28;20504;-15
2022/05/24 04:32:21;;;;;;;19.30;14.38;;;19.30;82.20;;;;;;5014631;28;20041;-16
2022/05/24 04:34:48;;;;;;;19.92;14.55;;;19.30;81.90;;;;;;5014620;28;20033;-14
2022/05/24 04:37:14;;;;;;;18.55;13.85;;;19.50;81.50;;;;;;4997117;28;20604;-15
2022/05/24 04:39:40;;;;;;;19.42;14.65;;;19.50;81.10;;;;;;5014546;28;20017;-13
2022/05/24 04:42:19;;;;;;;19.83;14.00;;;19.70;81.00;;;;;;5014615;28;20033;-14
2022/05/24 04:44:49;;;;;;;21.10;13.80;;;19.80;80.70;;;;;;5014971;28;20096;-14
2022/05/24 04:47:16;;;;;;;21.27;14.70;;;19.90;80.30;;;;;;5014440;28;20030;-14
2022/05/24 04:49:50;;;;;;;20.15;13.63;;;20.00;80.00;;;;;;5014584;28;20108;-15
2022/05/24 04:52:17;;;;;;;19.83;13.70;;;20.10;79.50;;;;;;5014125;28;20390;-13
2022/05/24 04:54:44;;;;;;;20.27;12.75;;;20.30;79.30;;;;;;5014479;28;20061;-14
2022/05/24 04:57:11;;;;;;;20.45;14.00;;;20.40;78.90;;;;;;5014269;28;20083;-16
2022/05/24 04:59:38;;;;;;;19.20;13.70;;;20.40;78.40;;;;;;5014090;28;20501;-15
2022/05/24 05:02:05;;;;;;;23.00;13.23;;;20.50;78.20;;;;;;5014128;28;20037;-14
2022/05/24 05:04:31;;;;;;;25.25;13.70;;;20.60;78.40;;;;;;5014153;28;20030;-14
2022/05/24 05:06:58;;;;;;;18.20;13.55;;;20.70;78.00;;;;;;5014047;28;20026;-15
2022/05/24 05:09:24;;;;;;;24.17;13.30;;;20.80;78.00;;;;;;5013872;28;20054;-15
2022/05/24 05:11:50;;;;;;;17.77;12.18;;;20.90;77.90;;;;;;5014182;28;20048;-15
2022/05/24 05:14:16;;;;;;;21.17;12.82;;;20.90;77.70;;;;;;5013885;28;20393;-14
2022/05/24 05:16:42;;;;;;;18.40;12.55;;;20.90;77.20;;;;;;5014148;28;20072;-14
2022/05/24 05:19:11;;;;;;;20.85;14.10;;;20.90;77.20;;;;;;5013750;28;20436;-14
2022/05/24 05:21:40;;;;;;;23.08;13.18;;;21.00;77.40;;;;;;5013779;28;20034;-14
2022/05/24 05:24:07;;;;;;;18.35;12.30;;;21.00;77.40;;;;;;5013662;28;20026;-14
2022/05/24 05:26:33;;;;;;;23.65;14.20;;;21.00;77.30;;;;;;5013659;28;20509;-14
2022/05/24 05:28:59;;;;;;;21.25;13.23;;;21.00;77.50;;;;;;5013431;28;20026;-14
2022/05/24 05:31:29;;;;;;;23.17;12.88;;;21.00;77.30;;;;;;5013884;28;20029;-13
2022/05/24 05:33:57;;;;;;;20.00;13.90;;;21.10;77.10;;;;;;5013613;28;20025;-13
2022/05/24 05:36:23;;;;;;;24.15;14.35;;;21.10;77.50;;;;;;5013646;28;20092;-14
2022/05/24 05:38:50;;;;;;;26.73;14.32;;;21.20;77.70;;;;;;5014043;28;20400;-16
2022/05/24 05:41:24;;;;;;;28.60;14.80;;;21.20;77.60;;;;;;5013829;28;20038;-13
2022/05/24 05:43:50;;;;;;;23.55;13.27;;;21.40;77.90;;;;;;5013869;28;20018;-14
2022/05/24 05:46:18;;;;;;;23.58;13.43;;;21.60;77.20;;;;;;5013526;28;20040;-14
2022/05/24 05:48:44;;;;;;;23.52;12.85;;;21.80;76.90;;;;;;5013767;28;20033;-14
2022/05/24 05:51:14;;;;;;;19.85;12.60;;;22.00;76.20;;;;;;5013390;28;20030;-14
2022/05/24 05:53:41;;;;;;;19.20;13.25;;;22.20;75.80;;;;;;5013315;28;20053;-14
2022/05/24 05:56:19;;;;;;;22.38;12.80;;;22.40;74.70;;;;;;5013531;28;20084;-13
2022/05/24 05:58:45;;;;;;;21.00;12.02;;;22.60;74.90;;;;;;4996196;28;20033;-16
2022/05/24 06:01:21;;;;;;;18.33;12.07;;;22.60;73.70;;;;;;5013569;28;20541;-14
2022/05/24 06:03:47;;;;;;;22.52;13.75;;;22.80;73.80;;;;;;5013639;28;20022;-16
2022/05/24 06:06:21;;;;;;;21.27;12.60;;;22.80;72.90;;;;;;5013850;28;20029;-19
2022/05/24 06:08:47;;;;;;;19.02;13.10;;;22.70;73.10;;;;;;5013056;28;20418;-13
2022/05/24 06:11:13;;;;;;;18.83;12.43;;;22.60;73.20;;;;;;5013470;28;20026;-13
2022/05/24 06:13:39;;;;;;;19.40;12.48;;;22.60;73.20;;;;;;5013187;28;20026;-14
2022/05/24 06:16:05;;;;;;;23.90;12.50;;;22.50;73.10;;;;;;5013136;28;20385;-14
2022/05/24 06:18:31;;;;;;;19.77;12.70;;;22.50;73.30;;;;;;5013122;28;20029;-14
2022/05/24 06:20:56;;;;;;;19.60;12.38;;;22.60;73.60;;;;;;5013373;28;20092;-14
2022/05/24 06:23:24;;;;;;;19.80;12.18;;;22.60;73.30;;;;;;5013079;28;20030;-13
2022/05/24 06:25:51;;;;;;;22.77;13.05;;;22.60;73.10;;;;;;5013331;28;20516;-14
2022/05/24 06:28:18;;;;;;;22.33;11.88;;;22.70;73.40;;;;;;5012855;28;20029;-15
2022/05/24 06:30:45;;;;;;;20.63;12.93;;;22.80;73.20;;;;;;5013302;28;20022;-14
2022/05/24 06:33:11;;;;;;;21.02;12.73;;;22.90;73.50;;;;;;5013100;28;20022;-15
2022/05/24 06:35:39;;;;;;;22.90;12.52;;;22.90;72.60;;;;;;5012999;28;20389;-14
2022/05/24 06:38:05;;;;;;;23.55;12.98;;;22.90;72.10;;;;;;5012911;28;20026;-13
2022/05/24 06:40:31;;;;;;;20.17;12.52;;;22.90;72.20;;;;;;5012717;28;20505;-13
2022/05/24 06:42:57;;;;;;;20.00;12.13;;;22.90;72.60;;;;;;5017014;28;20026;-14
2022/05/24 06:45:24;;;;;;;19.02;12.15;;;23.10;72.60;;;;;;5017028;28;20060;-13
2022/05/24 06:47:49;;;;;;;22.00;12.30;;;23.10;72.50;;;;;;5016596;28;20041;-14
2022/05/24 06:50:17;;;;;;;20.27;11.85;;;23.20;71.90;;;;;;5016372;28;20026;-14
2022/05/24 06:52:45;;;;;;;21.10;11.45;;;23.20;71.20;;;;;;5016818;28;20025;-13
2022/05/24 06:55:12;;;;;;;21.60;11.93;;;23.20;72.00;;;;;;5016365;28;20037;-13
2022/05/24 06:57:38;;;;;;;18.45;10.93;;;23.10;72.10;;;;;;5016328;28;20371;-13
2022/05/24 07:03:00;;;;;;;20.48;12.10;;;23.30;71.40;;;;;;5016711;28;20061;-13
2022/05/24 07:05:26;;;;;;;19.13;11.32;;;23.20;71.90;;;;;;5017068;28;20030;-13
2022/05/24 07:07:52;;;;;;;22.02;11.98;;;23.30;72.10;;;;;;5016204;28;20516;-14
2022/05/24 07:10:18;;;;;;;21.98;11.15;;;23.40;71.90;;;;;;5016029;28;20022;-14
2022/05/24 07:12:45;;;;;;;18.15;11.07;;;23.50;72.10;;;;;;5016148;28;20038;-13
2022/05/24 07:15:11;;;;;;;21.25;10.85;;;23.70;71.60;;;;;;5016098;28;20018;-14
2022/05/24 07:17:37;;;;;;;18.45;10.23;;;23.90;71.00;;;;;;5016325;28;20034;-13
2022/05/24 07:20:05;;;;;;;14.38;10.13;;;24.10;70.10;;;;;;5016002;28;20032;-13
2022/05/24 07:22:31;;;;;;;16.92;9.93;;;24.20;69.60;;;;;;5016006;28;20044;-13
2022/05/24 07:24:57;;;;;;;19.15;10.32;;;24.20;69.00;;;;;;5016137;28;20053;-14
2022/05/24 07:27:23;;;;;;;18.65;9.88;;;24.10;69.20;;;;;;5016270;28;20058;-13
2022/05/24 07:29:50;;;;;;;17.67;9.27;;;24.10;69.10;;;;;;5015841;28;20032;-15
2022/05/24 07:32:16;;;;;;;16.27;9.50;;;24.20;69.50;;;;;;5015726;28;20057;-14
2022/05/24 07:34:42;;;;;;;20.15;9.38;;;24.30;69.40;;;;;;5015794;28;20038;-13
2022/05/24 07:37:14;;;;;;;20.67;9.65;;;24.40;68.50;;;;;;5015830;28;20030;-13
2022/05/24 07:39:40;;;;;;;19.48;9.63;;;24.60;68.70;;;;;;5015888;28;20029;-14
2022/05/24 07:47:22;;;;;;;17.85;8.65;;;25.50;65.40;;;;;;5015600;28;20033;-13
2022/05/24 07:49:48;;;;;;;18.13;8.80;;;25.70;63.80;;;;;;5015785;28;20097;-13
2022/05/24 07:52:14;;;;;;;22.23;9.07;;;25.90;63.60;;;;;;5015197;28;20029;-13
2022/05/24 07:54:40;;;;;;;16.20;8.70;;;26.00;63.40;;;;;;5015804;28;20113;-13
2022/05/24 07:57:10;;;;;;;20.77;9.15;;;26.10;64.20;;;;;;5015337;28;20030;-13
2022/05/24 07:59:38;;;;;;;17.17;7.85;;;26.50;63.30;;;;;;5015677;28;20030;-13
2022/05/24 08:02:06;;;;;;;20.15;7.95;;;26.90;62.30;;;;;;5015367;28;20080;-13
2022/05/24 08:04:34;;;;;;;20.88;8.45;;;27.00;60.50;;;;;;5014965;28;20432;-13
2022/05/24 08:07:01;;;;;;;16.10;8.13;;;27.20;59.60;;;;;;5015158;28;20030;-14
2022/05/24 08:09:27;;;;;;;14.80;7.38;;;27.40;60.20;;;;;;4974761;28;20058;-15
2022/05/24 08:11:53;;;;;;;16.05;7.80;;;27.50;58.30;;;;;;4976070;28;20111;-14
2022/05/24 08:14:19;;;;;;;15.57;7.72;;;27.70;58.00;;;;;;4975977;28;20070;-13
2022/05/24 08:16:45;;;;;;;16.17;8.05;;;27.60;57.60;;;;;;4976655;28;20054;-13
2022/05/24 08:19:11;;;;;;;19.02;8.07;;;27.70;57.90;;;;;;4975926;28;20023;-13
2022/05/24 08:21:37;;;;;;;16.33;7.78;;;27.60;58.60;;;;;;4976173;28;20031;-14
2022/05/24 08:24:03;;;;;;;18.67;8.13;;;27.60;58.30;;;;;;4975902;28;20054;-14
2022/05/24 08:26:30;;;;;;;20.08;8.10;;;27.60;57.30;;;;;;4975896;28;20058;-13
2022/05/24 08:28:56;;;;;;;14.27;7.97;;;27.60;57.30;;;;;;4976108;28;20105;-14
2022/05/24 08:31:22;;;;;;;18.05;7.70;;;27.40;56.80;;;;;;4975976;28;20117;-13
2022/05/24 08:33:50;;;;;;;15.70;7.57;;;27.10;57.30;;;;;;4975947;28;20041;-15
2022/05/24 08:36:16;;;;;;;14.52;7.43;;;26.90;57.30;;;;;;4975408;28;20418;-13
2022/05/24 08:38:43;;;;;;;13.85;7.32;;;26.90;57.60;;;;;;4975361;28;20486;-13
2022/05/24 08:41:20;;;;;;;17.55;7.30;;;27.00;57.80;;;;;;4975512;28;20027;-13
2022/05/24 08:48:22;;;;;;;17.55;7.47;;;27.20;56.60;;;;;;4975532;28;20027;-14
2022/05/24 08:49:37;;;;;;;16.45;7.45;;;27.30;56.00;;;;;;4975577;28;20502;-14
2022/05/24 08:52:06;;;;;;;14.55;7.20;;;27.20;56.30;;;;;;4974125;28;20113;-14
2022/05/24 08:54:43;;;;;;;16.05;7.35;;;27.40;57.40;;;;;;4974970;28;20364;-13
2022/05/24 08:57:36;;;;;;;14.48;7.00;;;27.50;55.50;;;;;;4974051;28;20031;-15
2022/05/24 09:00:06;;;;;;;;;;;27.80;55.40;;;;;;4975761;28;20035;-13
2022/05/24 09:02:32;;;;;;;12.90;6.13;;;28.20;56.00;;;;;;4974914;28;19921;-14
2022/05/24 09:04:59;;;;;;;15.77;6.43;;;28.50;53.90;;;;;;4974846;28;20026;-14
2022/05/24 09:07:44;;;;;;;14.18;6.63;;;28.50;52.70;;;;;;4980985;28;20044;-13
2022/05/24 09:10:16;;;;;;;14.80;6.22;;;28.50;53.20;;;;;;5013934;28;20029;-14
2022/05/24 09:13:14;;;;;;;20.08;6.85;;;28.60;53.30;;;;;;5014234;28;20053;-14
2022/05/24 09:15:51;;;;;;;13.85;6.35;;;28.90;53.10;;;;;;5014255;28;20036;-14
2022/05/24 09:18:34;;;;;;;15.55;6.40;;;29.20;53.60;;;;;;5013659;28;20029;-13
2022/05/24 09:21:00;;;;;;;10.73;6.05;;;29.10;51.80;;;;;;5013943;28;20038;-13
2022/05/24 09:23:36;;;;;;;16.75;6.45;;;28.90;51.90;;;;;;5014278;28;20032;-13
2022/05/24 09:26:05;;;;;;;14.70;6.15;;;28.50;52.60;;;;;;5013896;28;20500;-13
2022/05/24 09:28:57;;;;;;;12.70;6.00;;;28.40;52.80;;;;;;5013507;28;20500;-13
2022/05/24 09:31:35;;;;;;;15.60;6.05;;;28.40;53.50;;;;;;5014056;28;20108;-13
2022/05/24 09:34:25;;;;;;;18.55;6.05;;;28.70;55.40;;;;;;5013912;28;20381;-13
2022/05/24 09:36:54;;;;;;;15.70;6.18;;;29.10;51.10;;;;;;5013692;28;20026;-14
2022/05/24 09:39:27;;;;;;;16.10;6.47;;;29.30;51.30;;;;;;5013434;28;20045;-14
2022/05/24 09:41:55;;;;;;;;;;;29.50;51.20;;;;;;5014007;28;20030;-13
2022/05/24 09:44:21;;;;;;;13.70;5.90;;;29.60;50.90;;;;;;5013908;28;19909;-13
2022/05/24 09:46:47;;;;;;;10.80;5.93;;;29.70;50.60;;;;;;5013412;28;20026;-13
2022/05/24 09:49:31;;;;;;;14.82;6.45;;;29.90;49.20;;;;;;5013473;28;20057;-13
2022/05/24 09:52:11;;;;;;;12.95;5.78;;;30.00;50.10;;;;;;5013516;28;20478;-13
2022/05/24 09:55:00;;;;;;;12.75;5.72;;;30.40;47.00;;;;;;5013108;28;20032;-13
2022/05/24 09:57:32;;;;;;;12.02;5.43;;;30.70;47.50;;;;;;5013684;28;20034;-13
2022/05/24 10:00:00;;;;;;;16.02;6.00;;;30.50;47.70;;;;;;5013722;28;20045;-13
2022/05/24 10:02:34;;;;;;;13.23;5.85;;;30.40;48.60;;;;;;5013400;28;20030;-13
2022/05/24 10:05:03;;;;;;;12.63;5.68;;;30.50;49.30;;;;;;5013550;28;20112;-13
2022/05/24 10:07:34;;;;;;;15.40;5.82;;;30.60;47.80;;;;;;5013281;28;20140;-13
2022/05/24 10:10:14;;;;;;;14.60;5.78;;;30.80;48.80;;;;;;5013354;28;20028;-14
2022/05/24 10:13:03;;;;;;;11.70;5.90;;;31.00;48.00;;;;;;5013572;28;20044;-14
2022/05/24 10:15:47;;;;;;;16.98;5.75;;;31.40;46.50;;;;;;5013707;28;20592;-13
2022/05/24 10:18:23;;;;;;;15.43;5.93;;;31.60;45.40;;;;;;5017246;28;20026;-14
2022/05/24 10:21:14;;;;;;;10.82;5.40;;;31.80;45.90;;;;;;5017619;28;20389;-14
2022/05/24 10:23:43;;;;;;;15.13;5.82;;;32.10;47.40;;;;;;5017347;28;20073;-13
2022/05/24 10:26:41;;;;;;;13.10;5.60;;;32.20;44.70;;;;;;5017377;28;20033;-14
2022/05/24 10:29:41;;;;;;;13.38;5.38;;;31.70;44.30;;;;;;5016737;28;20034;-14
2022/05/24 10:38:50;;;;;;;16.60;5.70;;;32.10;44.20;;;;;;5016854;28;20508;-14
2022/05/24 10:41:41;;;;;;;12.10;4.72;;;32.20;42.70;;;;;;5017105;28;20061;-13
2022/05/24 10:44:41;;;;;;;11.57;5.57;;;32.10;43.30;;;;;;5016984;28;20060;-14
2022/05/24 10:47:30;;;;;;;13.65;5.50;;;32.40;44.00;;;;;;5017105;28;20028;-14
2022/05/24 10:50:01;;;;;;;15.98;5.55;;;32.70;44.00;;;;;;5016802;28;20026;-14
2022/05/24 10:52:37;;;;;;;11.80;5.45;;;32.40;44.30;;;;;;5016424;28;20022;-14
2022/05/24 10:55:25;;;;;;;11.38;5.18;;;32.40;43.80;;;;;;5016434;28;20021;-14
2022/05/24 10:58:09;;;;;;;12.55;5.28;;;32.40;43.70;;;;;;5016565;28;20026;-14
2022/05/24 11:00:46;;;;;;;14.90;5.57;;;32.20;44.50;;;;;;5016575;28;20076;-13
2022/05/24 11:03:26;;;;;;;12.15;5.32;;;31.80;43.70;;;;;;5016403;28;20433;-14
2022/05/24 11:06:13;;;;;;;13.13;5.97;;;31.40;45.50;;;;;;4998758;28;20080;-13
2022/05/24 11:08:48;;;;;;;15.02;5.80;;;30.60;46.60;;;;;;5016609;28;20046;-13
2022/05/24 11:11:33;;;;;;;12.73;5.68;;;30.30;48.20;;;;;;5016622;28;20093;-13
2022/05/24 11:14:32;;;;;;;9.32;5.20;;;30.70;45.90;;;;;;5016235;28;20076;-13
2022/05/24 11:16:58;;;;;;;12.60;5.35;;;31.20;45.70;;;;;;5016695;28;20030;-13
2022/05/24 11:19:31;;;;;;;11.82;5.70;;;30.90;45.90;;;;;;4998446;28;20065;-14
2022/05/24 11:22:10;;;;;;;13.60;5.55;;;30.80;46.80;;;;;;5016413;28;20034;-14
2022/05/24 11:24:43;;;;;;;11.32;5.45;;;31.00;46.20;;;;;;4998282;28;20174;-13
2022/05/24 11:27:14;;;;;;;13.02;5.90;;;31.30;44.50;;;;;;5015571;28;20547;-14
2022/05/24 11:29:48;;;;;;;11.73;5.50;;;31.40;45.50;;;;;;5016141;28;20401;-13
2022/05/24 11:32:33;;;;;;;12.93;5.43;;;31.10;45.30;;;;;;5015960;28;20377;-14
2022/05/24 11:35:11;;;;;;;11.38;4.88;;;31.50;45.50;;;;;;5016290;28;20030;-13
2022/05/24 11:37:40;;;;;;;13.07;5.30;;;32.10;44.90;;;;;;5015810;28;20381;-13
2022/05/24 11:40:30;;;;;;;10.95;5.13;;;32.70;42.80;;;;;;5015653;28;20030;-13
2022/05/24 11:43:03;;;;;;;11.68;5.00;;;33.20;41.10;;;;;;5015701;28;20026;-13
2022/05/24 11:45:29;;;;;;;10.63;5.13;;;33.90;41.20;;;;;;5015903;28;20026;-13
2022/05/24 11:48:07;;;;;;;12.85;5.20;;;34.40;38.80;;;;;;5015710;28;20091;-13
2022/05/24 11:51:21;;;;;;;12.68;4.75;;;34.80;39.70;;;;;;4997873;28;20030;-13
2022/05/24 11:53:47;;;;;;;9.48;4.63;;;35.00;37.90;;;;;;4970238;28;20030;-13
2022/05/24 11:56:16;;;;;;;8.15;4.40;;;34.60;38.80;;;;;;5015420;28;20026;-13
2022/05/24 11:58:53;;;;;;;9.55;4.28;;;34.40;39.30;;;;;;5015331;28;20025;-13
2022/05/24 12:01:19;;;;;;;8.25;4.40;;;34.40;38.50;;;;;;5015592;28;20030;-13
2022/05/24 12:10:20;;;;;;;9.75;5.00;;;35.30;38.00;;;;;;5015408;28;20099;-14
2022/05/24 12:12:46;;;;;;;10.50;4.57;;;35.50;37.30;;;;;;5015494;28;20037;-14
2022/05/24 12:15:12;;;;;;;7.03;4.57;;;35.40;37.50;;;;;;5015018;28;20038;-14
2022/05/24 12:17:43;;;;;;;9.57;4.80;;;34.50;38.60;;;;;;5015260;28;20022;-14
2022/05/24 12:20:29;;;;;;;10.30;5.50;;;33.60;40.30;;;;;;5014944;28;20112;-14
2022/05/24 12:23:04;;;;;;;9.43;6.00;;;32.70;42.80;;;;;;4987382;28;20470;-14
2022/05/24 12:25:51;;;;;;;10.75;5.80;;;31.90;43.70;;;;;;5014955;28;20026;-16
2022/05/24 12:28:20;;;;;;;12.23;6.25;;;31.70;44.40;;;;;;5014918;28;20042;-14
2022/05/24 12:30:49;;;;;;;11.40;7.40;;;31.80;44.50;;;;;;5015008;28;20022;-13
2022/05/24 12:33:35;;;;;;;16.80;7.50;;;31.90;45.50;;;;;;5014969;28;20038;-13
2022/05/24 12:36:12;;;;;;;16.10;7.40;;;32.00;44.90;;;;;;5014707;28;20034;-14
2022/05/24 12:38:39;;;;;;;12.10;7.97;;;32.10;45.60;;;;;;5013601;28;20120;-13
2022/05/24 12:41:32;;;;;;;11.70;7.78;;;31.70;46.70;;;;;;5014459;28;20097;-13
2022/05/24 12:44:19;;;;;;;14.00;8.80;;;32.30;46.00;;;;;;5014701;28;20482;-14
2022/05/24 12:46:55;;;;;;;14.50;7.82;;;32.20;45.90;;;;;;5014790;28;20034;-13
2022/05/24 12:49:29;;;;;;;15.43;8.27;;;32.20;46.50;;;;;;5015070;28;20053;-14
2022/05/24 12:52:10;;;;;;;14.68;8.40;;;31.90;46.40;;;;;;5014618;28;20374;-13
2022/05/24 12:54:48;;;;;;;13.35;8.32;;;31.70;46.90;;;;;;5014060;28;20032;-13
2022/05/24 12:57:16;;;;;;;14.40;9.05;;;31.50;47.30;;;;;;5014542;28;20020;-13
2022/05/24 12:59:50;;;;;;;16.25;8.82;;;31.20;47.90;;;;;;5014410;28;20553;-13
2022/05/24 13:02:23;;;;;;;13.30;9.05;;;31.00;48.10;;;;;;5014420;28;20092;-14
2022/05/24 13:04:49;;;;;;;;;;;31.00;49.00;;;;;;5014644;28;20084;-13
2022/05/24 13:07:35;;;;;;;14.90;8.93;;;31.10;48.40;;;;;;5013918;28;19905;-13
2022/05/24 13:10:10;;;;;;;15.38;8.77;;;31.30;47.70;;;;;;5014286;28;20030;-13
2022/05/24 13:12:37;;;;;;;16.70;8.63;;;31.00;48.50;;;;;;5013952;28;20481;-13
2022/05/24 13:15:09;;;;;;;14.45;8.68;;;31.00;49.40;;;;;;5014503;28;20029;-14
2022/05/24 13:17:45;;;;;;;13.43;8.18;;;31.50;49.10;;;;;;5014170;28;20026;-14
2022/05/24 13:20:44;;;;;;;12.57;8.60;;;31.40;48.70;;;;;;5014240;28;20034;-13
2022/05/24 13:23:16;;;;;;;12.82;8.27;;;31.80;47.50;;;;;;5014082;28;20030;-13
2022/05/24 13:25:53;;;;;;;13.35;7.32;;;31.70;47.80;;;;;;5014041;28;20096;-14
2022/05/24 13:28:37;;;;;;;14.23;7.22;;;31.90;47.90;;;;;;5013801;28;20030;-13
2022/05/24 13:34:25;;;;;;;13.77;7.55;;;31.70;45.50;;;;;;5014108;28;20406;-14
2022/05/24 13:36:58;;;;;;;12.13;7.55;;;31.70;46.80;;;;;;5013705;28;20112;-14